createdAt,value
2018-05-12T00:01:51.657Z,12.42
2018-05-12T00:04:19.516Z,12.42
2018-05-12T00:06:47.083Z,12.34
2018-05-12T00:09:14.754Z,12.35
2018-05-12T00:11:42.310Z,12.32
2018-05-12T00:14:09.862Z,12.43
2018-05-12T00:16:37.425Z,12.40
2018-05-12T00:19:05.088Z,12.26
2018-05-12T00:21:32.646Z,12.18
2018-05-12T00:24:00.192Z,12.31
2018-05-12T00:26:28.687Z,12.39
2018-05-12T00:28:56.349Z,12.22
2018-05-12T00:31:23.878Z,12.36
2018-05-12T00:33:51.430Z,12.31
2018-05-12T00:36:19.032Z,12.15
2018-05-12T00:38:46.585Z,11.96
2018-05-12T00:41:14.146Z,11.50
2018-05-12T00:43:41.716Z,11.84
2018-05-12T00:46:09.265Z,11.99
2018-05-12T00:48:36.937Z,12.18
2018-05-12T00:51:04.495Z,12.10
2018-05-12T00:53:32.148Z,12.11
2018-05-12T00:55:59.709Z,12.11
2018-05-12T00:58:27.371Z,12.09
2018-05-12T01:00:54.929Z,12.13
2018-05-12T01:03:22.506Z,12.04
2018-05-12T01:05:50.037Z,11.95
2018-05-12T01:08:17.712Z,11.71
2018-05-12T01:10:45.271Z,11.65
2018-05-12T01:13:12.914Z,11.63
2018-05-12T01:15:40.471Z,11.58
2018-05-12T01:18:07.999Z,11.75
2018-05-12T01:20:35.571Z,11.45
2018-05-12T01:23:03.176Z,11.40
2018-05-12T01:25:30.754Z,11.16
2018-05-12T01:27:58.292Z,11.11
2018-05-12T01:30:25.876Z,11.31
2018-05-12T01:32:53.431Z,11.38
2018-05-12T01:35:21.010Z,11.49
2018-05-12T01:37:48.537Z,11.02
2018-05-12T01:40:16.193Z,10.94
2018-05-12T01:42:43.749Z,10.94
2018-05-12T01:45:11.412Z,10.94
2018-05-12T01:47:38.945Z,10.99
2018-05-12T01:50:06.525Z,11.09
2018-05-12T01:52:34.050Z,10.98
2018-05-12T01:55:01.716Z,10.99
2018-05-12T01:57:29.620Z,10.95
2018-05-12T01:59:57.283Z,10.90
2018-05-12T02:02:24.840Z,10.65
2018-05-12T02:04:52.413Z,10.73
2018-05-12T02:07:19.938Z,10.55
2018-05-12T02:09:47.485Z,10.59
2018-05-12T02:12:15.081Z,10.85
2018-05-12T02:14:42.645Z,10.79
2018-05-12T02:17:10.174Z,10.55
2018-05-12T02:19:37.757Z,10.76
2018-05-12T02:22:05.302Z,10.64
2018-05-12T02:24:32.879Z,10.44
2018-05-12T02:27:00.415Z,10.17
2018-05-12T02:29:27.982Z,10.39
2018-05-12T02:31:55.556Z,10.36
2018-05-12T02:34:23.114Z,10.44
2018-05-12T02:36:50.640Z,10.33
2018-05-12T02:39:18.344Z,10.40
2018-05-12T02:41:45.895Z,10.45
2018-05-12T02:44:13.558Z,10.56
2018-05-12T02:46:41.198Z,10.52
2018-05-12T02:49:08.750Z,10.45
2018-05-12T02:51:36.329Z,10.35
2018-05-12T02:54:03.906Z,10.22
2018-05-12T02:56:31.480Z,10.27
2018-05-12T02:58:59.018Z,10.16
2018-05-12T03:01:26.613Z,10.18
2018-05-12T03:03:54.172Z,10.12
2018-05-12T03:06:21.810Z,9.96
2018-05-12T03:08:49.348Z,9.96
2018-05-12T03:11:16.921Z,10.08
2018-05-12T03:13:44.445Z,9.89
2018-05-12T03:16:12.039Z,9.64
2018-05-12T03:18:39.596Z,9.50
2018-05-12T03:21:07.276Z,9.48
2018-05-12T03:23:34.820Z,9.65
2018-05-12T03:26:02.410Z,9.81
2018-05-12T03:28:29.968Z,9.81
2018-05-12T03:30:57.566Z,9.84
2018-05-12T03:33:25.159Z,9.87
2018-05-12T03:35:52.718Z,9.77
2018-05-12T03:38:20.244Z,9.73
2018-05-12T03:40:47.797Z,9.80
2018-05-12T03:43:15.400Z,9.82
2018-05-12T03:45:43.064Z,9.65
2018-05-12T03:48:10.607Z,9.86
2018-05-12T03:50:38.281Z,9.75
2018-05-12T03:53:05.834Z,9.75
2018-05-12T03:55:33.481Z,9.64
2018-05-12T03:58:01.014Z,9.78
2018-05-12T04:00:28.571Z,9.78
2018-05-12T04:02:56.180Z,9.56
2018-05-12T04:05:35.421Z,9.19
2018-05-12T04:11:19.577Z,9.22
2018-05-12T04:13:47.125Z,9.36
2018-05-12T04:16:14.706Z,9.64
2018-05-12T04:18:42.260Z,9.70
2018-05-12T04:21:09.830Z,9.78
2018-05-12T04:23:37.390Z,9.95
2018-05-12T04:26:04.968Z,10.02
2018-05-12T04:28:32.603Z,10.01
2018-05-12T04:31:00.170Z,10.06
2018-05-12T04:33:27.824Z,9.89
2018-05-12T04:35:55.393Z,9.58
2018-05-12T04:38:23.049Z,9.85
2018-05-12T04:40:50.604Z,9.85
2018-05-12T04:43:18.365Z,9.70
2018-05-12T04:45:45.805Z,10.11
2018-05-12T04:48:13.385Z,10.16
2018-05-12T04:50:40.954Z,10.28
2018-05-12T04:53:08.613Z,10.30
2018-05-12T04:55:36.136Z,10.39
2018-05-12T04:58:03.717Z,10.39
2018-05-12T05:00:31.286Z,10.59
2018-05-12T05:02:58.948Z,10.64
2018-05-12T05:05:26.523Z,10.78
2018-05-12T05:07:54.100Z,10.93
2018-05-12T05:10:21.706Z,11.03
2018-05-12T05:12:49.283Z,11.15
2018-05-12T05:15:16.842Z,11.27
2018-05-12T05:17:44.413Z,11.19
2018-05-12T05:20:11.967Z,11.33
2018-05-12T05:22:39.539Z,11.33
2018-05-12T05:25:07.091Z,11.53
2018-05-12T05:27:34.749Z,11.62
2018-05-12T05:30:02.308Z,11.67
2018-05-12T05:32:29.970Z,11.79
2018-05-12T05:34:57.506Z,11.73
2018-05-12T05:37:25.204Z,11.92
2018-05-12T05:39:52.857Z,11.96
2018-05-12T05:42:20.410Z,11.98
2018-05-12T05:44:47.975Z,12.16
2018-05-12T05:47:15.539Z,12.34
2018-05-12T05:49:43.063Z,12.36
2018-05-12T05:52:10.660Z,12.43
2018-05-12T05:54:38.203Z,12.43
2018-05-12T05:57:05.772Z,12.45
2018-05-12T05:59:33.344Z,12.65
2018-05-12T06:02:00.874Z,12.73
2018-05-12T06:04:28.453Z,12.86
2018-05-12T06:06:56.034Z,12.97
2018-05-12T06:09:23.579Z,13.15
2018-05-12T06:11:51.135Z,13.14
2018-05-12T06:14:18.712Z,13.29
2018-05-12T06:16:46.237Z,13.37
2018-05-12T06:19:13.909Z,13.55
2018-05-12T06:21:41.443Z,13.50
2018-05-12T06:24:09.142Z,13.71
2018-05-12T06:26:36.775Z,13.84
2018-05-12T06:29:04.806Z,14.00
2018-05-12T06:31:32.378Z,14.13
2018-05-12T06:33:59.983Z,14.23
2018-05-12T06:36:27.550Z,14.52
2018-05-12T06:38:55.111Z,14.57
2018-05-12T06:41:22.637Z,14.63
2018-05-12T06:43:50.195Z,14.81
2018-05-12T06:46:17.784Z,15.03
2018-05-12T06:48:45.346Z,15.11
2018-05-12T06:51:12.869Z,15.05
2018-05-12T06:53:40.474Z,15.13
2018-05-12T06:56:08.002Z,15.51
2018-05-12T06:58:35.581Z,15.51
2018-05-12T07:01:03.127Z,15.39
2018-05-12T07:03:30.800Z,15.62
2018-05-12T07:05:58.332Z,15.83
2018-05-12T07:08:25.909Z,15.89
2018-05-12T07:10:53.488Z,16.06
2018-05-12T07:13:21.058Z,16.15
2018-05-12T07:15:49.549Z,16.20
2018-05-12T07:18:17.569Z,16.31
2018-05-12T07:20:46.265Z,16.44
2018-05-12T07:23:13.893Z,16.58
2018-05-12T07:25:41.502Z,16.69
2018-05-12T07:28:09.058Z,16.76
2018-05-12T07:30:36.721Z,16.87
2018-05-12T07:33:04.354Z,16.88
2018-05-12T07:35:31.954Z,17.03
2018-05-12T07:38:00.958Z,16.80
2018-05-12T07:40:28.665Z,16.86
2018-05-12T07:42:56.193Z,17.25
2018-05-12T07:45:25.280Z,17.45
2018-05-12T07:47:52.956Z,17.60
2018-05-12T07:50:20.569Z,17.79
2018-05-12T07:52:48.175Z,17.86
2018-05-12T07:55:15.729Z,17.84
2018-05-12T07:57:43.278Z,17.93
2018-05-12T08:00:10.931Z,18.08
2018-05-12T08:02:38.465Z,18.18
2018-05-12T08:05:06.650Z,18.25
2018-05-12T08:07:34.264Z,18.25
2018-05-12T08:10:02.042Z,18.30
2018-05-12T08:12:30.045Z,18.37
2018-05-12T08:14:57.675Z,18.57
2018-05-12T08:17:25.573Z,18.55
2018-05-12T08:19:53.204Z,18.63
2018-05-12T08:22:20.752Z,18.67
2018-05-12T08:24:48.457Z,18.78
2018-05-12T08:27:16.017Z,18.87
2018-05-12T08:29:43.679Z,18.88
2018-05-12T08:32:11.211Z,19.22
2018-05-12T08:34:38.912Z,19.32
2018-05-12T08:37:11.114Z,19.32
2018-05-12T08:39:41.070Z,19.46
2018-05-12T08:42:11.670Z,19.55
2018-05-12T08:44:42.118Z,19.67
2018-05-12T08:47:09.806Z,19.66
2018-05-12T08:49:37.426Z,19.84
2018-05-12T08:52:04.955Z,19.94
2018-05-12T08:54:32.587Z,20.11
2018-05-12T08:57:00.134Z,20.25
2018-05-12T08:59:27.714Z,20.31
2018-05-12T09:01:55.239Z,20.44
2018-05-12T09:04:22.835Z,20.37
2018-05-12T09:06:50.493Z,20.49
2018-05-12T09:09:18.044Z,20.61
2018-05-12T09:11:45.801Z,20.71
2018-05-12T09:14:13.349Z,20.74
2018-05-12T09:16:41.653Z,20.65
2018-05-12T09:19:12.229Z,20.76
2018-05-12T09:21:45.300Z,20.81
2018-05-12T09:24:18.428Z,20.91
2018-05-12T09:26:51.027Z,21.02
2018-05-12T09:29:23.715Z,21.15
2018-05-12T09:34:33.933Z,21.32
2018-05-12T09:37:07.339Z,21.09
2018-05-12T09:39:38.026Z,21.26
2018-05-12T09:42:09.925Z,21.31
2018-05-12T09:44:42.374Z,21.41
2018-05-12T09:47:13.827Z,21.57
2018-05-12T09:49:47.279Z,21.40
2018-05-12T09:52:20.580Z,21.50
2018-05-12T09:54:56.053Z,21.67
2018-05-12T09:57:30.235Z,21.74
2018-05-12T09:59:59.069Z,21.87
2018-05-12T10:02:27.593Z,22.05
2018-05-12T10:04:55.642Z,22.03
2018-05-12T10:07:26.849Z,22.11
2018-05-12T10:09:55.953Z,22.24
2018-05-12T10:12:24.853Z,22.25
2018-05-12T10:14:55.409Z,22.50
2018-05-12T10:17:23.122Z,22.61
2018-05-12T10:19:56.587Z,22.65
2018-05-12T10:22:35.954Z,22.67
2018-05-12T10:25:08.879Z,22.58
2018-05-12T10:27:45.033Z,22.69
2018-05-12T10:30:22.265Z,22.54
2018-05-12T10:32:55.253Z,22.99
2018-05-12T10:35:30.872Z,22.98
2018-05-12T10:40:38.190Z,23.18
2018-05-12T10:43:11.887Z,23.36
2018-05-12T10:45:44.505Z,23.37
2018-05-12T10:48:16.784Z,23.49
2018-05-12T10:50:50.648Z,23.21
2018-05-12T10:53:24.935Z,23.04
2018-05-12T10:55:59.418Z,23.25
2018-05-12T10:58:35.345Z,23.15
2018-05-12T11:01:11.043Z,23.08
2018-05-12T11:03:44.922Z,22.96
2018-05-12T11:06:18.423Z,22.96
2018-05-12T11:11:28.354Z,22.70
2018-05-12T11:14:03.765Z,22.91
2018-05-12T11:16:36.804Z,23.11
2018-05-12T11:19:08.921Z,23.17
2018-05-12T11:21:46.465Z,23.21
2018-05-12T11:24:18.074Z,23.42
2018-05-12T11:26:48.103Z,23.44
2018-05-12T11:29:15.831Z,23.53
2018-05-12T11:31:46.048Z,23.43
2018-05-12T11:34:14.636Z,23.24
2018-05-12T11:36:42.193Z,23.62
2018-05-12T11:39:13.404Z,23.97
2018-05-12T11:41:44.150Z,24.11
2018-05-12T11:44:14.478Z,24.02
2018-05-12T11:46:46.104Z,24.20
2018-05-12T11:49:18.287Z,24.36
2018-05-12T11:51:48.999Z,24.40
2018-05-12T11:54:17.458Z,24.14
2018-05-12T11:56:48.318Z,24.31
2018-05-12T11:59:19.688Z,24.44
2018-05-12T12:01:48.425Z,24.67
2018-05-12T12:04:16.013Z,24.21
2018-05-12T12:06:43.630Z,24.40
2018-05-12T12:09:14.030Z,24.50
2018-05-12T12:11:44.368Z,24.70
2018-05-12T12:14:13.666Z,24.86
2018-05-12T12:16:43.394Z,24.76
2018-05-12T12:19:11.064Z,24.82
2018-05-12T12:21:41.267Z,24.84
2018-05-12T12:24:08.988Z,25.02
2018-05-12T12:26:36.597Z,24.89
2018-05-12T12:29:06.974Z,24.84
2018-05-12T12:31:34.940Z,24.92
2018-05-12T12:34:02.479Z,24.76
2018-05-12T12:36:31.965Z,24.46
2018-05-12T12:38:59.638Z,24.76
2018-05-12T12:41:27.209Z,24.74
2018-05-12T12:43:54.761Z,24.84
2018-05-12T12:46:22.295Z,24.92
2018-05-12T12:48:49.853Z,24.86
2018-05-12T12:51:17.418Z,24.63
2018-05-12T12:53:44.975Z,24.40
2018-05-12T12:56:12.497Z,24.92
2018-05-12T12:58:40.050Z,24.88
2018-05-12T13:01:08.072Z,24.76
2018-05-12T13:03:35.725Z,24.81
2018-05-12T13:06:03.261Z,24.86
2018-05-12T13:08:30.808Z,25.30
2018-05-12T13:10:58.337Z,25.86
2018-05-12T13:13:25.970Z,25.87
2018-05-12T13:15:53.592Z,25.78
2018-05-12T13:18:21.116Z,25.82
2018-05-12T13:20:48.645Z,25.31
2018-05-12T13:23:16.306Z,25.48
2018-05-12T13:25:43.826Z,25.25
2018-05-12T13:28:11.429Z,25.18
2018-05-12T13:30:38.953Z,25.35
2018-05-12T13:33:06.585Z,25.59
2018-05-12T13:35:34.705Z,25.61
2018-05-12T13:38:02.309Z,25.51
2018-05-12T13:40:30.447Z,25.76
2018-05-12T13:42:58.113Z,25.73
2018-05-12T13:45:25.673Z,25.91
2018-05-12T13:47:53.826Z,26.15
2018-05-12T13:50:25.123Z,26.25
2018-05-12T13:52:52.721Z,26.25
2018-05-12T13:55:20.310Z,26.46
2018-05-12T13:57:47.953Z,26.36
2018-05-12T14:00:15.534Z,26.15
2018-05-12T14:02:43.204Z,25.97
2018-05-12T14:05:10.762Z,25.74
2018-05-12T14:07:38.643Z,25.22
2018-05-12T14:10:06.363Z,25.75
2018-05-12T14:12:34.141Z,25.78
2018-05-12T14:15:01.722Z,26.24
2018-05-12T14:17:29.346Z,26.57
2018-05-12T14:19:56.929Z,26.64
2018-05-12T14:22:24.489Z,26.41
2018-05-12T14:24:52.095Z,26.32
2018-05-12T14:27:19.904Z,26.49
2018-05-12T14:29:49.757Z,26.22
2018-05-12T14:32:17.391Z,26.34
2018-05-12T14:34:44.938Z,26.35
2018-05-12T14:37:12.513Z,26.24
2018-05-12T14:39:40.691Z,26.18
2018-05-12T14:42:08.346Z,26.06
2018-05-12T14:44:35.899Z,26.28
2018-05-12T14:47:03.465Z,26.09
2018-05-12T14:49:31.949Z,25.99
2018-05-12T14:51:59.504Z,26.41
2018-05-12T14:54:27.053Z,26.49
2018-05-12T14:56:54.606Z,26.75
2018-05-12T14:59:22.491Z,26.70
2018-05-12T15:01:51.789Z,26.68
2018-05-12T15:04:19.358Z,26.92
2018-05-12T15:06:46.915Z,27.11
2018-05-12T15:09:14.776Z,27.12
2018-05-12T15:11:42.335Z,27.29
2018-05-12T15:14:10.574Z,26.91
2018-05-12T15:16:38.153Z,26.82
2018-05-12T15:19:05.751Z,26.90
2018-05-12T15:21:34.150Z,26.71
2018-05-12T15:24:03.078Z,26.68
2018-05-12T15:26:30.977Z,26.92
2018-05-12T15:29:01.531Z,27.17
2018-05-12T15:31:30.590Z,27.18
2018-05-12T15:33:59.302Z,27.08
2018-05-12T15:36:27.658Z,26.97
2018-05-12T15:38:56.596Z,26.69
2018-05-12T15:41:24.328Z,26.93
2018-05-12T15:43:52.031Z,26.95
2018-05-12T15:46:19.601Z,27.02
2018-05-12T15:48:47.203Z,26.70
2018-05-12T15:51:15.422Z,26.84
2018-05-12T15:53:42.957Z,26.69
2018-05-12T15:56:11.634Z,27.21
2018-05-12T15:58:39.175Z,26.57
2018-05-12T16:01:06.734Z,26.51
2018-05-12T16:03:34.264Z,26.38
2018-05-12T16:06:01.820Z,26.47
2018-05-12T16:08:29.346Z,26.51
2018-05-12T16:10:56.898Z,26.29
2018-05-12T16:13:24.431Z,26.21
2018-05-12T16:15:52.092Z,26.46
2018-05-12T16:18:19.631Z,26.50
2018-05-12T16:20:47.210Z,26.56
2018-05-12T16:23:17.030Z,26.62
2018-05-12T16:25:48.079Z,27.07
2018-05-12T16:28:19.850Z,26.89
2018-05-12T16:30:50.239Z,26.63
2018-05-12T16:33:21.537Z,26.54
2018-05-12T16:35:49.248Z,26.54
2018-05-12T16:38:16.766Z,26.45
2018-05-12T16:40:44.321Z,26.28
2018-05-12T16:43:11.850Z,26.40
2018-05-12T16:45:39.508Z,26.24
2018-05-12T16:48:07.159Z,26.44
2018-05-12T16:50:34.746Z,26.31
2018-05-12T16:53:02.264Z,26.27
2018-05-12T16:55:29.940Z,26.81
2018-05-12T16:57:57.509Z,26.60
2018-05-12T17:00:25.068Z,27.01
2018-05-12T17:02:52.621Z,26.74
2018-05-12T17:05:23.021Z,26.37
2018-05-12T17:07:53.626Z,26.33
2018-05-12T17:10:25.821Z,26.39
2018-05-12T17:12:56.323Z,26.33
2018-05-12T17:15:26.951Z,26.28
2018-05-12T17:17:56.991Z,26.96
2018-05-12T17:20:28.064Z,27.49
2018-05-12T17:22:59.091Z,29.19
2018-05-12T17:25:27.289Z,28.10
2018-05-12T17:27:54.852Z,27.54
2018-05-12T17:30:23.496Z,27.16
2018-05-12T17:32:51.194Z,26.42
2018-05-12T17:35:18.751Z,26.16
2018-05-12T17:37:46.372Z,25.93
2018-05-12T17:40:13.968Z,25.61
2018-05-12T17:42:41.478Z,25.64
2018-05-12T17:45:11.471Z,25.52
2018-05-12T17:47:39.112Z,25.43
2018-05-12T17:50:06.643Z,25.32
2018-05-12T17:52:34.324Z,25.11
2018-05-12T17:55:01.884Z,24.85
2018-05-12T17:57:29.551Z,24.70
2018-05-12T17:59:57.115Z,24.50
2018-05-12T18:02:24.701Z,24.54
2018-05-12T18:04:52.226Z,24.44
2018-05-12T18:07:19.782Z,24.37
2018-05-12T18:09:47.380Z,24.25
2018-05-12T18:12:14.933Z,24.07
2018-05-12T18:14:42.564Z,23.88
2018-05-12T18:17:10.239Z,23.57
2018-05-12T18:19:38.605Z,23.57
2018-05-12T18:22:06.233Z,23.54
2018-05-12T18:24:33.761Z,23.42
2018-05-12T18:27:01.344Z,23.30
2018-05-12T18:29:29.046Z,23.21
2018-05-12T18:31:56.613Z,23.15
2018-05-12T18:34:27.251Z,23.01
2018-05-12T18:37:02.317Z,22.93
2018-05-12T18:39:32.481Z,22.75
2018-05-12T18:42:02.578Z,22.67
2018-05-12T18:44:32.411Z,22.63
2018-05-12T18:47:02.112Z,22.49
2018-05-12T18:49:32.765Z,22.41
2018-05-12T18:52:02.834Z,22.40
2018-05-12T18:54:32.584Z,22.10
2018-05-12T18:57:02.743Z,22.01
2018-05-12T18:59:34.075Z,21.83
2018-05-12T19:02:05.421Z,21.80
2018-05-12T19:04:35.833Z,21.68
2018-05-12T19:07:05.537Z,21.58
2018-05-12T19:09:35.014Z,21.57
2018-05-12T19:12:04.781Z,21.36
2018-05-12T19:14:34.694Z,21.27
2018-05-12T19:17:05.806Z,21.28
2018-05-12T19:19:36.536Z,21.16
2018-05-12T19:22:07.245Z,21.16
2018-05-12T19:24:37.399Z,21.17
2018-05-12T19:27:07.355Z,21.04
2018-05-12T19:29:38.845Z,20.97
2018-05-12T19:32:08.513Z,20.85
2018-05-12T19:34:38.620Z,20.79
2018-05-12T19:37:09.053Z,20.80
2018-05-12T19:39:38.920Z,20.71
2018-05-12T19:42:08.983Z,20.56
2018-05-12T19:44:39.479Z,20.45
2018-05-12T19:47:09.190Z,20.42
2018-05-12T19:49:38.714Z,20.39
2018-05-12T19:52:08.222Z,20.35
2018-05-12T19:54:38.336Z,20.24
2018-05-12T19:57:07.953Z,20.25
2018-05-12T19:59:37.773Z,20.15
2018-05-12T20:02:08.129Z,20.04
2018-05-12T20:04:37.980Z,20.10
2018-05-12T20:07:08.606Z,20.28
2018-05-12T20:09:41.510Z,20.21
2018-05-12T20:12:11.343Z,20.20
2018-05-12T20:14:41.143Z,20.27
2018-05-12T20:17:11.377Z,20.10
2018-05-12T20:19:41.044Z,20.10
2018-05-12T20:22:11.916Z,20.06
2018-05-12T20:24:42.758Z,20.10
2018-05-12T20:27:13.380Z,19.93
2018-05-12T20:29:43.830Z,19.98
2018-05-12T20:32:13.882Z,20.00
2018-05-12T20:34:43.876Z,20.01
2018-05-12T20:37:14.899Z,19.93
2018-05-12T20:39:46.146Z,19.88
2018-05-12T20:42:17.195Z,19.80
2018-05-12T20:44:48.968Z,19.78
2018-05-12T20:47:19.545Z,19.72
2018-05-12T20:49:50.191Z,19.72
2018-05-12T20:52:21.228Z,19.74
2018-05-12T20:54:51.556Z,19.72
2018-05-12T20:57:22.794Z,19.65
2018-05-12T20:59:53.700Z,19.50
2018-05-12T21:02:25.429Z,19.46
2018-05-12T21:04:55.831Z,19.61
2018-05-12T21:07:28.309Z,19.55
2018-05-12T21:09:58.339Z,19.48
2018-05-12T21:12:27.562Z,19.44
2018-05-12T21:14:58.369Z,19.34
2018-05-12T21:17:30.141Z,19.39
2018-05-12T21:20:00.325Z,19.27
2018-05-12T21:22:30.346Z,19.28
2018-05-12T21:24:59.636Z,19.32
2018-05-12T21:27:27.811Z,19.15
2018-05-12T21:29:55.369Z,19.10
2018-05-12T21:32:24.056Z,18.72
2018-05-12T21:34:51.742Z,18.49
2018-05-12T21:37:19.268Z,18.64
2018-05-12T21:39:47.417Z,18.70
2018-05-12T21:42:16.850Z,18.46
2018-05-12T21:44:44.574Z,18.22
2018-05-12T21:47:12.097Z,18.16
2018-05-12T21:49:39.666Z,18.35
2018-05-12T21:52:07.296Z,18.41
2018-05-12T21:54:35.150Z,18.57
2018-05-12T21:57:05.655Z,18.80
2018-05-12T22:02:13.337Z,18.62
2018-05-12T22:04:43.064Z,18.44
2018-05-12T22:07:13.751Z,18.66
2018-05-12T22:09:45.443Z,18.69
2018-05-12T22:12:15.331Z,18.59
2018-05-12T22:14:45.401Z,18.61
2018-05-12T22:19:52.003Z,18.50
2018-05-12T22:22:23.637Z,18.61
2018-05-12T22:24:54.803Z,18.47
2018-05-12T22:27:29.035Z,18.27
2018-05-12T22:29:59.107Z,18.21
2018-05-12T22:32:31.524Z,18.37
2018-05-12T22:35:03.515Z,18.54
2018-05-12T22:37:33.915Z,18.48
2018-05-12T22:40:04.617Z,18.45
2018-05-12T22:42:35.847Z,18.64
2018-05-12T22:45:05.981Z,18.90
2018-05-12T22:47:37.196Z,18.97
2018-05-12T22:50:07.796Z,18.98
2018-05-12T22:52:38.887Z,18.97
2018-05-12T22:55:11.499Z,19.00
2018-05-12T22:57:41.464Z,18.98
2018-05-12T23:00:14.488Z,19.03
2018-05-12T23:02:44.437Z,18.97
2018-05-12T23:05:15.374Z,18.97
2018-05-12T23:07:46.351Z,18.88
2018-05-12T23:10:17.714Z,18.89
2018-05-12T23:12:48.257Z,18.88
2018-05-12T23:15:20.574Z,18.82
2018-05-12T23:17:52.901Z,18.76
2018-05-12T23:20:24.005Z,18.76
2018-05-12T23:22:54.308Z,18.73
2018-05-12T23:25:25.713Z,18.70
2018-05-12T23:27:56.891Z,18.75
2018-05-12T23:30:27.833Z,18.65
2018-05-12T23:32:58.475Z,18.77
2018-05-12T23:35:29.816Z,18.76
2018-05-12T23:38:00.731Z,18.71
2018-05-12T23:40:30.823Z,18.59
2018-05-12T23:43:03.447Z,18.50
2018-05-12T23:45:35.587Z,18.37
2018-05-12T23:48:06.130Z,18.41
2018-05-12T23:50:36.697Z,18.54
2018-05-12T23:53:08.785Z,18.56
2018-05-12T23:55:44.933Z,18.51
2018-05-12T23:58:15.555Z,18.47
